Terminal Aerodrome Forecast
Issued by NWS Twin Cities, MN

Home | Current Version | Previous Version | Graphics & Text | Print | Product List | Glossary On
Versions: 1 2 3 4 5 6 7 8 9 10 11 12
000
FTUS43 KMPX 251732
TAFEAU
TAF
KEAU 251732Z 2518/2618 29013G21KT P6SM VCSH SCT025 BKN040
      TEMPO 2518/2520 2SM BR BKN020
     FM260100 30005KT P6SM FEW050 SCT100
     FM260600 30004KT P6SM SKC
     FM261500 32009KT P6SM BKN040=

USA.gov is the U.S. government's official web portal to all federal, state and local government web resources and services.